createdAt,value
2023-12-01T00:01:27.337Z,0.30
2023-12-01T00:03:54.769Z,0.50
2023-12-01T00:06:22.188Z,0.73
2023-12-01T00:08:49.526Z,0.65
2023-12-01T00:11:16.852Z,0.15
2023-12-01T00:13:44.166Z,0.77
2023-12-01T00:16:11.707Z,0.25
2023-12-01T00:18:39.133Z,0.43
2023-12-01T00:21:06.810Z,1.00
2023-12-01T00:23:34.209Z,0.22
2023-12-01T00:26:01.521Z,0.22
2023-12-01T00:28:28.990Z,0.32
2023-12-01T00:30:56.400Z,0.32
2023-12-01T00:33:24.141Z,0.40
2023-12-01T00:35:51.535Z,0.30
2023-12-01T00:38:18.897Z,0.22
2023-12-01T00:40:46.294Z,0.15
2023-12-01T00:43:14.716Z,0.63
2023-12-01T00:45:42.228Z,0.73
2023-12-01T00:48:09.689Z,0.13
2023-12-01T00:50:37.283Z,0.32
2023-12-01T00:53:04.516Z,0.40
2023-12-01T00:55:31.800Z,0.20
2023-12-01T00:57:59.277Z,0.70
2023-12-01T01:00:26.978Z,0.20
2023-12-01T01:02:54.380Z,0.22
2023-12-01T01:05:22.161Z,0.65
2023-12-01T01:07:49.506Z,0.20
2023-12-01T01:10:16.945Z,0.25
2023-12-01T01:12:44.427Z,0.40
2023-12-01T01:15:11.844Z,0.38
2023-12-01T01:17:39.323Z,0.22
2023-12-01T01:20:07.191Z,0.40
2023-12-01T01:22:34.801Z,0.20
2023-12-01T01:25:02.211Z,0.35
2023-12-01T01:27:29.721Z,0.77
2023-12-01T01:29:57.044Z,0.77
2023-12-01T01:32:24.800Z,1.00
2023-12-01T01:34:52.226Z,0.52
2023-12-01T01:37:19.574Z,1.00
2023-12-01T01:39:46.996Z,0.45
2023-12-01T01:42:14.514Z,0.30
2023-12-01T01:44:41.877Z,0.55
2023-12-01T01:47:10.126Z,0.20
2023-12-01T01:49:38.528Z,0.20
2023-12-01T01:52:06.503Z,0.22
2023-12-01T01:54:34.086Z,0.30
2023-12-01T01:57:02.321Z,0.50
2023-12-01T01:59:29.801Z,0.22
2023-12-01T02:01:58.561Z,0.30
2023-12-01T02:04:26.669Z,0.22
2023-12-01T02:06:54.695Z,0.50
2023-12-01T02:09:22.016Z,0.57
2023-12-01T02:11:49.812Z,0.43
2023-12-01T02:14:17.118Z,0.88
2023-12-01T02:16:47.631Z,0.22
2023-12-01T02:19:15.709Z,0.63
2023-12-01T02:21:49.617Z,0.40
2023-12-01T02:26:44.403Z,0.75
2023-12-01T02:29:11.769Z,0.15
2023-12-01T02:31:39.251Z,0.57
2023-12-01T02:34:07.459Z,0.60
2023-12-01T02:36:34.993Z,0.68
2023-12-01T02:39:02.872Z,0.73
2023-12-01T02:41:30.737Z,0.20
2023-12-01T02:43:58.597Z,0.50
2023-12-01T02:46:26.310Z,0.70
2023-12-01T02:48:53.779Z,0.55
2023-12-01T02:51:21.912Z,0.82
2023-12-01T02:56:16.552Z,0.32
2023-12-01T02:58:43.914Z,0.70
2023-12-01T03:01:11.428Z,0.35
2023-12-01T03:03:38.920Z,0.88
2023-12-01T03:06:06.617Z,0.55
2023-12-01T03:08:33.966Z,0.80
2023-12-01T03:11:01.253Z,0.47
2023-12-01T03:13:28.654Z,0.50
2023-12-01T03:15:57.848Z,0.50
2023-12-01T03:18:25.320Z,0.57
2023-12-01T03:20:52.623Z,0.63
2023-12-01T03:23:19.918Z,0.77
2023-12-01T03:25:47.232Z,0.90
2023-12-01T03:28:16.448Z,0.65
2023-12-01T03:30:44.275Z,0.47
2023-12-01T03:33:13.931Z,0.90
2023-12-01T03:35:41.438Z,0.57
2023-12-01T03:38:08.816Z,0.55
2023-12-01T03:40:36.139Z,0.77
2023-12-01T03:43:03.404Z,1.15
2023-12-01T03:45:30.879Z,1.15
2023-12-01T03:47:58.177Z,1.55
2023-12-01T03:50:25.505Z,0.80
2023-12-01T03:52:53.082Z,1.02
2023-12-01T03:55:20.663Z,0.50
2023-12-01T03:57:48.121Z,0.50
2023-12-01T04:00:19.355Z,1.13
2023-12-01T04:02:48.510Z,0.60
2023-12-01T04:05:23.835Z,0.77
2023-12-01T04:07:55.631Z,0.90
2023-12-01T04:10:27.503Z,0.88
2023-12-01T04:12:56.424Z,0.98
2023-12-01T04:15:27.839Z,1.00
2023-12-01T04:17:55.853Z,0.85
2023-12-01T04:20:23.860Z,1.00
2023-12-01T04:22:53.453Z,0.90
2023-12-01T04:25:21.467Z,0.77
2023-12-01T04:30:17.970Z,0.60
2023-12-01T04:32:57.648Z,0.63
2023-12-01T04:35:31.172Z,0.75
2023-12-01T04:38:01.288Z,1.23
2023-12-01T04:40:30.987Z,1.05
2023-12-01T04:43:00.991Z,1.25
2023-12-01T04:45:32.889Z,0.70
2023-12-01T04:48:00.739Z,0.70
2023-12-01T04:50:30.022Z,1.08
2023-12-01T04:52:59.008Z,1.20
2023-12-01T04:55:28.381Z,1.60
2023-12-01T04:57:57.768Z,1.08
2023-12-01T05:00:28.127Z,0.77
2023-12-01T05:03:02.730Z,0.32
2023-12-01T05:05:32.935Z,1.05
2023-12-01T05:08:02.715Z,0.88
2023-12-01T05:10:32.123Z,0.68
2023-12-01T05:13:03.172Z,0.60
2023-12-01T05:15:32.423Z,0.93
2023-12-01T05:18:02.397Z,1.08
2023-12-01T05:20:30.568Z,1.20
2023-12-01T05:23:12.315Z,1.00
2023-12-01T05:25:43.287Z,0.98
2023-12-01T05:28:12.497Z,1.20
2023-12-01T05:30:42.278Z,1.20
2023-12-01T05:33:10.273Z,2.15
2023-12-01T05:35:38.911Z,0.98
2023-12-01T05:38:06.943Z,1.48
2023-12-01T05:43:08.068Z,0.50
2023-12-01T05:45:37.505Z,1.00
2023-12-01T05:48:09.288Z,1.00
2023-12-01T05:50:38.326Z,0.90
2023-12-01T05:55:38.036Z,1.27
2023-12-01T05:58:12.100Z,0.73
2023-12-01T06:00:40.720Z,1.27
2023-12-01T06:03:10.753Z,1.52
2023-12-01T06:05:39.895Z,1.65
2023-12-01T06:08:10.595Z,1.08
2023-12-01T06:10:38.168Z,1.00
2023-12-01T06:13:06.272Z,1.55
2023-12-01T06:15:33.962Z,1.00
2023-12-01T06:18:02.838Z,1.50
2023-12-01T06:20:32.866Z,1.30
2023-12-01T06:23:02.881Z,1.70
2023-12-01T06:25:32.909Z,1.35
2023-12-01T06:28:03.176Z,1.00
2023-12-01T06:30:36.836Z,1.05
2023-12-01T06:33:07.775Z,1.25
2023-12-01T06:35:35.356Z,0.82
2023-12-01T06:38:02.776Z,1.15
2023-12-01T06:40:35.272Z,1.10
2023-12-01T06:43:12.288Z,1.40
2023-12-01T06:45:41.952Z,1.40
2023-12-01T06:48:09.491Z,1.30
2023-12-01T06:50:36.846Z,1.48
2023-12-01T06:53:04.204Z,1.33
2023-12-01T06:55:31.572Z,1.00
2023-12-01T06:57:59.098Z,0.98
2023-12-01T07:00:35.402Z,1.23
2023-12-01T07:03:09.921Z,1.50
2023-12-01T07:05:41.670Z,1.20
2023-12-01T07:08:16.235Z,1.77
2023-12-01T07:10:44.966Z,1.67
2023-12-01T07:13:12.388Z,0.95
2023-12-01T07:15:40.152Z,1.23
2023-12-01T07:18:08.437Z,1.40
2023-12-01T07:20:35.868Z,1.10
2023-12-01T07:23:06.048Z,1.20
2023-12-01T07:25:35.237Z,1.17
2023-12-01T07:28:05.015Z,1.15
2023-12-01T07:30:32.577Z,1.85
2023-12-01T07:33:02.089Z,1.92
2023-12-01T07:35:29.804Z,1.60
2023-12-01T07:37:57.151Z,1.00
2023-12-01T07:40:26.084Z,1.50
2023-12-01T07:42:57.069Z,1.40
2023-12-01T07:45:25.184Z,1.20
2023-12-01T07:47:54.671Z,1.70
2023-12-01T07:50:23.635Z,1.02
2023-12-01T07:52:52.082Z,1.65
2023-12-01T07:55:23.333Z,1.40
2023-12-01T07:57:51.087Z,1.27
2023-12-01T08:00:19.551Z,1.65
2023-12-01T08:02:48.964Z,0.93
2023-12-01T08:05:18.059Z,1.50
2023-12-01T08:07:48.368Z,1.25
2023-12-01T08:10:18.751Z,1.45
2023-12-01T08:12:47.772Z,1.42
2023-12-01T08:15:16.066Z,1.40
2023-12-01T08:17:45.499Z,1.00
2023-12-01T08:20:13.951Z,1.25
2023-12-01T08:22:44.790Z,1.50
2023-12-01T08:25:14.145Z,1.77
2023-12-01T08:27:41.932Z,2.20
2023-12-01T08:30:10.375Z,1.70
2023-12-01T08:32:45.731Z,1.45
2023-12-01T08:35:13.278Z,1.55
2023-12-01T08:37:40.644Z,1.73
2023-12-01T08:40:14.248Z,1.40
2023-12-01T08:42:43.451Z,1.10
2023-12-01T08:45:11.768Z,1.40
2023-12-01T08:47:40.831Z,2.10
2023-12-01T08:50:10.193Z,2.22
2023-12-01T08:52:41.903Z,2.25
2023-12-01T08:55:11.756Z,3.17
2023-12-01T08:57:39.271Z,1.55
2023-12-01T09:00:09.490Z,1.58
2023-12-01T09:02:36.981Z,1.60
2023-12-01T09:05:05.730Z,0.93
2023-12-01T09:07:33.342Z,1.08
2023-12-01T09:10:01.332Z,1.20
2023-12-01T09:14:56.464Z,0.57
2023-12-01T09:17:24.349Z,0.85
2023-12-01T09:19:52.134Z,1.13
2023-12-01T09:22:19.644Z,1.13
2023-12-01T09:24:47.529Z,0.90
2023-12-01T09:27:15.332Z,1.30
2023-12-01T09:29:43.107Z,1.10
2023-12-01T09:32:10.494Z,1.48
2023-12-01T09:34:37.850Z,1.40
2023-12-01T09:37:05.462Z,1.83
2023-12-01T09:39:32.781Z,1.25
2023-12-01T09:42:07.885Z,1.55
2023-12-01T09:44:36.651Z,1.70
2023-12-01T09:47:11.676Z,1.92
2023-12-01T09:49:39.601Z,1.55
2023-12-01T09:52:07.169Z,1.50
2023-12-01T09:54:34.537Z,1.58
2023-12-01T09:57:10.718Z,1.55
2023-12-01T09:59:39.517Z,1.45
2023-12-01T10:02:07.036Z,1.17
2023-12-01T10:04:35.014Z,1.20
2023-12-01T10:07:04.835Z,0.90
2023-12-01T10:09:36.623Z,1.00
2023-12-01T10:12:09.490Z,0.95
2023-12-01T10:14:38.049Z,1.70
2023-12-01T10:17:07.171Z,1.77
2023-12-01T10:19:35.904Z,1.48
2023-12-01T10:22:03.948Z,1.35
2023-12-01T10:24:32.489Z,1.42
2023-12-01T10:27:04.488Z,0.77
2023-12-01T10:29:33.568Z,1.27
2023-12-01T10:32:06.355Z,0.90
2023-12-01T10:34:33.993Z,1.30
2023-12-01T10:37:01.965Z,1.15
2023-12-01T10:39:30.966Z,0.95
2023-12-01T10:42:02.882Z,0.85
2023-12-01T10:44:33.572Z,1.48
2023-12-01T10:47:03.699Z,1.15
2023-12-01T10:49:32.836Z,1.38
2023-12-01T10:52:02.225Z,1.15
2023-12-01T10:54:30.061Z,1.30
2023-12-01T10:57:08.539Z,1.75
2023-12-01T10:59:38.418Z,1.20
2023-12-01T11:02:07.147Z,1.20
2023-12-01T11:04:35.166Z,1.05
2023-12-01T11:07:35.003Z,1.35
2023-12-01T11:10:14.456Z,1.65
2023-12-01T11:13:06.407Z,1.45
2023-12-01T11:15:38.120Z,1.58
2023-12-01T11:18:10.039Z,1.17
2023-12-01T11:20:39.635Z,0.90
2023-12-01T11:23:25.110Z,1.42
2023-12-01T11:26:07.453Z,1.20
2023-12-01T11:28:45.079Z,1.50
2023-12-01T11:31:37.320Z,1.60
2023-12-01T11:34:06.604Z,2.05
2023-12-01T11:36:38.493Z,1.98
2023-12-01T11:39:18.155Z,1.52
2023-12-01T11:41:45.805Z,1.10
2023-12-01T11:44:17.201Z,1.20
2023-12-01T11:46:46.140Z,1.38
2023-12-01T11:49:16.455Z,1.63
2023-12-01T11:51:47.237Z,1.40
2023-12-01T11:54:15.000Z,1.15
2023-12-01T11:56:48.873Z,1.80
2023-12-01T12:01:43.478Z,1.10
2023-12-01T12:04:14.749Z,1.42
2023-12-01T12:06:43.956Z,0.68
2023-12-01T12:09:20.106Z,0.90
2023-12-01T12:11:54.987Z,0.70
2023-12-01T12:14:27.078Z,0.90
2023-12-01T12:16:55.082Z,1.13
2023-12-01T12:19:23.261Z,1.10
2023-12-01T12:21:51.547Z,1.15
2023-12-01T12:26:56.014Z,0.43
2023-12-01T12:29:25.365Z,0.77
2023-12-01T12:31:53.400Z,1.50
2023-12-01T12:36:52.448Z,0.90
2023-12-01T12:39:25.311Z,1.58
2023-12-01T12:42:01.574Z,2.15
2023-12-01T12:44:35.050Z,1.67
2023-12-01T12:47:06.804Z,1.60
2023-12-01T12:49:35.869Z,1.13
2023-12-01T12:52:04.677Z,1.38
2023-12-01T12:54:32.681Z,0.68
2023-12-01T12:57:00.495Z,1.88
2023-12-01T12:59:28.126Z,1.40
2023-12-01T13:01:55.544Z,1.50
2023-12-01T13:04:23.164Z,1.13
2023-12-01T13:06:51.540Z,1.17
2023-12-01T13:09:19.602Z,1.30
2023-12-01T13:11:47.525Z,0.93
2023-12-01T13:14:15.948Z,0.90
2023-12-01T13:16:52.682Z,0.88
2023-12-01T13:19:25.119Z,0.88
2023-12-01T13:21:55.854Z,0.80
2023-12-01T13:24:26.753Z,0.63
2023-12-01T13:26:55.661Z,0.90
2023-12-01T13:29:23.248Z,1.05
2023-12-01T13:31:51.014Z,1.00
2023-12-01T13:34:19.661Z,0.68
2023-12-01T13:36:48.253Z,0.63
2023-12-01T13:39:19.053Z,0.57
2023-12-01T13:41:46.583Z,0.35
2023-12-01T13:44:14.089Z,0.90
2023-12-01T13:46:41.814Z,1.10
2023-12-01T13:49:09.252Z,0.77
2023-12-01T13:51:36.897Z,0.90
2023-12-01T13:54:04.437Z,0.38
2023-12-01T13:56:31.862Z,0.38
2023-12-01T13:58:59.214Z,0.10
2023-12-01T14:01:27.105Z,0.52
2023-12-01T14:03:54.563Z,0.20
2023-12-01T14:06:22.099Z,0.43
2023-12-01T14:08:49.603Z,0.60
2023-12-01T14:11:17.025Z,0.10
2023-12-01T14:13:44.281Z,0.28
2023-12-01T14:16:11.993Z,0.22
2023-12-01T14:18:39.435Z,0.17
2023-12-01T14:21:07.087Z,0.45
2023-12-01T14:23:34.492Z,0.60
2023-12-01T14:26:01.843Z,0.10
2023-12-01T14:28:29.569Z,0.25
2023-12-01T14:30:57.761Z,0.20
2023-12-01T14:33:25.384Z,0.30
2023-12-01T14:35:53.304Z,0.50
2023-12-01T14:38:20.699Z,0.52
2023-12-01T14:40:48.453Z,0.47
2023-12-01T14:43:15.819Z,0.88
2023-12-01T14:45:43.383Z,0.40
2023-12-01T14:48:11.017Z,0.28
2023-12-01T14:50:38.362Z,0.73
2023-12-01T14:53:05.699Z,0.40
2023-12-01T14:55:33.007Z,0.10
2023-12-01T14:58:00.873Z,0.40
2023-12-01T15:00:28.465Z,0.85
2023-12-01T15:02:55.836Z,0.28
2023-12-01T15:05:23.178Z,0.05
2023-12-01T15:07:50.514Z,0.08
2023-12-01T15:10:18.151Z,0.47
2023-12-01T15:12:45.451Z,0.35
2023-12-01T15:15:13.230Z,0.22
2023-12-01T15:17:40.702Z,0.47
2023-12-01T15:20:10.123Z,0.32
2023-12-01T15:22:37.472Z,0.50
2023-12-01T15:25:05.098Z,0.35
2023-12-01T15:27:32.525Z,0.20
2023-12-01T15:29:59.955Z,1.08
2023-12-01T15:32:27.372Z,0.43
2023-12-01T15:34:55.522Z,0.43
2023-12-01T15:37:25.543Z,0.20
2023-12-01T15:39:52.994Z,0.43
2023-12-01T15:42:20.366Z,0.15
2023-12-01T15:44:50.410Z,0.38
2023-12-01T15:47:17.906Z,0.32
2023-12-01T15:49:45.256Z,0.00
2023-12-01T15:52:12.789Z,0.65
2023-12-01T15:54:42.485Z,0.08
2023-12-01T15:57:11.337Z,0.17
2023-12-01T15:59:39.060Z,0.40
2023-12-01T16:02:06.389Z,0.57
2023-12-01T16:04:35.718Z,0.80
2023-12-01T16:07:03.591Z,0.35
2023-12-01T16:09:31.802Z,0.60
2023-12-01T16:11:59.180Z,0.35
2023-12-01T16:14:26.592Z,0.38
2023-12-01T16:16:54.740Z,0.63
2023-12-01T16:19:22.122Z,0.40
2023-12-01T16:21:51.195Z,0.68
2023-12-01T16:24:22.560Z,0.60
2023-12-01T16:26:55.608Z,0.50
2023-12-01T16:29:23.305Z,0.22
2023-12-01T16:31:50.643Z,1.23
2023-12-01T16:34:19.387Z,0.82
2023-12-01T16:36:53.460Z,2.53
2023-12-01T16:39:22.570Z,1.00
2023-12-01T16:41:50.026Z,2.00
2023-12-01T16:44:18.098Z,1.00
2023-12-01T16:46:47.014Z,1.10
2023-12-01T16:49:14.357Z,0.28
2023-12-01T16:51:41.757Z,0.80
2023-12-01T16:54:09.402Z,0.52
2023-12-01T16:56:36.944Z,0.60
2023-12-01T16:59:04.311Z,0.70
